createdAt,value
2022-11-24T16:51:43.845Z,57.93
2022-11-24T16:54:11.304Z,40.77
2022-11-24T16:56:38.437Z,25.35
2022-11-24T16:59:05.849Z,29.10
2022-11-24T17:01:32.848Z,21.20
2022-11-24T17:04:00.335Z,23.37
2022-11-24T17:06:28.548Z,25.23
2022-11-24T17:08:56.806Z,26.07
2022-11-24T17:11:25.799Z,27.90
2022-11-24T17:13:53.689Z,26.37
2022-11-24T17:16:22.590Z,25.67
2022-11-24T17:18:50.037Z,29.33
2022-11-24T17:21:29.943Z,24.37
2022-11-24T17:23:58.561Z,33.53
2022-11-24T17:26:26.400Z,22.43
2022-11-24T17:28:56.148Z,21.80
2022-11-24T17:31:28.790Z,27.43
2022-11-24T17:33:57.486Z,30.30
2022-11-24T17:36:25.905Z,23.20
2022-11-24T17:39:01.505Z,18.57
2022-11-24T17:41:30.224Z,20.53
2022-11-24T17:43:57.159Z,21.70
2022-11-24T17:46:31.398Z,28.83
2022-11-24T17:48:58.271Z,22.80
2022-11-24T17:51:26.745Z,23.97
2022-11-24T17:53:55.465Z,26.30
2022-11-24T17:56:28.128Z,23.27
2022-11-24T17:58:57.301Z,27.47
2022-11-24T18:01:25.923Z,20.73
2022-11-24T18:03:54.486Z,17.73
2022-11-24T18:06:25.186Z,14.20
2022-11-24T18:08:53.027Z,15.50
2022-11-24T18:11:28.887Z,20.57
2022-11-24T18:14:01.354Z,14.53
2022-11-24T18:16:30.869Z,14.03
2022-11-24T18:19:11.591Z,21.03
2022-11-24T18:21:42.256Z,15.47
2022-11-24T18:24:11.038Z,17.87
2022-11-24T18:26:39.177Z,11.10
2022-11-24T18:29:06.520Z,14.13
2022-11-24T18:31:35.400Z,16.53
2022-11-24T18:34:05.242Z,13.63
2022-11-24T18:36:32.973Z,14.37
2022-11-24T18:39:07.517Z,10.63
2022-11-24T18:41:37.150Z,8.93
2022-11-24T18:44:08.251Z,13.93
2022-11-24T18:46:38.459Z,19.53
2022-11-24T18:49:07.381Z,13.10
2022-11-24T18:51:34.729Z,14.70
2022-11-24T18:54:04.278Z,14.37
2022-11-24T18:56:32.737Z,13.07
2022-11-24T18:58:59.851Z,12.90
2022-11-24T19:01:28.659Z,11.27
2022-11-24T19:04:01.383Z,10.10
2022-11-24T19:06:34.065Z,9.90
2022-11-24T19:09:12.585Z,8.83
2022-11-24T19:11:41.741Z,13.37
2022-11-24T19:14:13.105Z,10.00
2022-11-24T19:16:42.896Z,10.00
2022-11-24T19:19:12.542Z,10.30
2022-11-24T19:21:40.447Z,10.40
2022-11-24T19:24:12.389Z,13.53
2022-11-24T19:26:42.653Z,9.83
2022-11-24T19:29:10.576Z,13.33
2022-11-24T19:31:39.371Z,12.25
2022-11-24T19:34:07.825Z,15.83
2022-11-24T19:36:34.918Z,13.97
2022-11-24T19:39:04.583Z,8.33
2022-11-24T19:41:34.286Z,10.47
2022-11-24T19:44:01.075Z,11.63
2022-11-24T19:46:29.668Z,11.40
2022-11-24T19:48:59.039Z,13.07
2022-11-24T19:51:45.603Z,10.77
2022-11-24T19:54:15.381Z,16.03
2022-11-24T19:56:42.241Z,12.90
2022-11-24T19:59:13.017Z,15.93
2022-11-24T20:01:41.299Z,13.40
2022-11-24T20:04:12.520Z,14.50
2022-11-24T20:06:43.474Z,14.63
2022-11-24T20:09:12.735Z,12.47
2022-11-24T20:11:42.039Z,12.43
2022-11-24T20:14:12.427Z,9.90
2022-11-24T20:16:41.883Z,10.07
2022-11-24T20:19:12.570Z,9.07
2022-11-24T20:21:41.530Z,10.25
2022-11-24T20:24:16.978Z,9.50
2022-11-24T20:26:53.258Z,10.90
2022-11-24T20:29:21.822Z,13.67
2022-11-24T20:31:52.048Z,11.10
2022-11-24T20:34:20.357Z,13.17
2022-11-24T20:36:48.024Z,9.10
2022-11-24T20:39:17.867Z,10.73
2022-11-24T20:41:45.425Z,10.17
2022-11-24T20:44:15.396Z,10.60
2022-11-24T20:46:44.563Z,16.03
2022-11-24T20:49:14.864Z,15.50
2022-11-24T20:51:45.147Z,10.20
2022-11-24T20:54:13.715Z,14.57
2022-11-24T20:56:43.621Z,13.10
2022-11-24T20:59:16.575Z,12.97
2022-11-24T21:01:45.619Z,16.33
2022-11-24T21:04:16.767Z,12.17
2022-11-24T21:06:43.673Z,12.90
2022-11-24T21:09:11.226Z,21.83
2022-11-24T21:11:38.997Z,10.93
2022-11-24T21:14:06.807Z,18.93
2022-11-24T21:16:36.443Z,22.00
2022-11-24T21:19:09.849Z,13.13
2022-11-24T21:21:38.058Z,16.70
2022-11-24T21:24:09.356Z,12.23
2022-11-24T21:26:36.894Z,19.03
2022-11-24T21:29:04.203Z,20.33
2022-11-24T21:31:30.937Z,12.43
2022-11-24T21:33:57.579Z,11.47
2022-11-24T21:36:26.180Z,10.07
2022-11-24T21:38:57.431Z,12.50
2022-11-24T21:41:26.272Z,16.13
2022-11-24T21:43:55.778Z,23.30
2022-11-24T21:46:22.728Z,10.20
2022-11-24T21:48:49.674Z,12.60
2022-11-24T21:51:18.406Z,12.20
2022-11-24T21:53:46.260Z,11.70
2022-11-24T21:56:18.527Z,12.13
2022-11-24T21:58:54.793Z,12.10
2022-11-24T22:01:23.555Z,9.37
2022-11-24T22:03:51.050Z,10.23
2022-11-24T22:06:19.232Z,11.40
2022-11-24T22:08:47.297Z,10.10
2022-11-24T22:11:15.203Z,9.70
2022-11-24T22:13:42.927Z,17.60
2022-11-24T22:16:12.429Z,12.30
2022-11-24T22:18:43.700Z,17.40
2022-11-24T22:21:16.368Z,11.20
2022-11-24T22:23:43.112Z,15.53
2022-11-24T22:26:18.948Z,14.33
2022-11-24T22:28:46.291Z,19.73
2022-11-24T22:31:19.277Z,16.93
2022-11-24T22:33:46.521Z,11.70
2022-11-24T22:36:14.870Z,12.53
2022-11-24T22:38:42.384Z,12.43
2022-11-24T22:41:17.265Z,12.03
2022-11-24T22:43:45.423Z,11.87
